sensor_id;sensor_type;location;lat;lon;timestamp;temperature;humidity
15636;DHT22;7917;50.818;6.972;2023-02-01T00:00:35;5.60;99.90
15636;DHT22;7917;50.818;6.972;2023-02-01T00:03:07;5.60;99.90
15636;DHT22;7917;50.818;6.972;2023-02-01T00:05:38;5.50;99.90
15636;DHT22;7917;50.818;6.972;2023-02-01T00:08:05;5.40;99.90
15636;DHT22;7917;50.818;6.972;2023-02-01T00:10:43;5.40;99.90
15636;DHT22;7917;50.818;6.972;2023-02-01T00:13:29;5.20;99.90
15636;DHT22;7917;50.818;6.972;2023-02-01T00:16:12;5.10;99.90
15636;DHT22;7917;50.818;6.972;2023-02-01T00:19:06;5.00;99.90
15636;DHT22;7917;50.818;6.972;2023-02-01T00:21:49;5.10;99.90
15636;DHT22;7917;50.818;6.972;2023-02-01T00:30:41;5.00;99.90
15636;DHT22;7917;50.818;6.972;2023-02-01T00:33:09;5.00;99.90
15636;DHT22;7917;50.818;6.972;2023-02-01T00:42:16;4.90;99.90
15636;DHT22;7917;50.818;6.972;2023-02-01T00:44:43;4.80;99.90
15636;DHT22;7917;50.818;6.972;2023-02-01T00:47:44;4.90;99.90
15636;DHT22;7917;50.818;6.972;2023-02-01T00:50:38;5.00;99.90
15636;DHT22;7917;50.818;6.972;2023-02-01T00:53:29;5.10;99.90
15636;DHT22;7917;50.818;6.972;2023-02-01T00:56:10;5.10;99.90
15636;DHT22;7917;50.818;6.972;2023-02-01T00:58:55;5.20;99.90
15636;DHT22;7917;50.818;6.972;2023-02-01T01:01:52;5.30;99.90
15636;DHT22;7917;50.818;6.972;2023-02-01T01:04:52;5.40;99.90
15636;DHT22;7917;50.818;6.972;2023-02-01T01:07:19;5.50;99.90
15636;DHT22;7917;50.818;6.972;2023-02-01T01:09:54;5.50;99.90
15636;DHT22;7917;50.818;6.972;2023-02-01T01:12:25;5.60;99.90
15636;DHT22;7917;50.818;6.972;2023-02-01T01:14:57;5.60;99.90
15636;DHT22;7917;50.818;6.972;2023-02-01T01:17:24;5.60;99.90
15636;DHT22;7917;50.818;6.972;2023-02-01T01:20:12;5.60;99.90
15636;DHT22;7917;50.818;6.972;2023-02-01T01:22:58;5.60;99.90
15636;DHT22;7917;50.818;6.972;2023-02-01T01:25:58;5.70;99.90
15636;DHT22;7917;50.818;6.972;2023-02-01T01:28:43;5.70;99.90
15636;DHT22;7917;50.818;6.972;2023-02-01T01:31:11;5.60;99.90
15636;DHT22;7917;50.818;6.972;2023-02-01T01:34:13;5.60;99.90
15636;DHT22;7917;50.818;6.972;2023-02-01T01:36:43;5.70;99.90
15636;DHT22;7917;50.818;6.972;2023-02-01T01:39:10;5.70;99.90
15636;DHT22;7917;50.818;6.972;2023-02-01T01:45:37;5.70;99.90
15636;DHT22;7917;50.818;6.972;2023-02-01T01:48:14;5.80;99.90
15636;DHT22;7917;50.818;6.972;2023-02-01T01:50:45;5.70;99.90
15636;DHT22;7917;50.818;6.972;2023-02-01T01:53:25;5.70;99.90
15636;DHT22;7917;50.818;6.972;2023-02-01T01:55:54;5.70;99.90
15636;DHT22;7917;50.818;6.972;2023-02-01T01:58:27;5.70;99.90
15636;DHT22;7917;50.818;6.972;2023-02-01T02:01:11;5.70;99.90
15636;DHT22;7917;50.818;6.972;2023-02-01T02:03:48;5.70;99.90
15636;DHT22;7917;50.818;6.972;2023-02-01T02:06:32;5.60;99.90
15636;DHT22;7917;50.818;6.972;2023-02-01T02:09:12;5.60;99.90
15636;DHT22;7917;50.818;6.972;2023-02-01T02:17:58;5.40;99.90
15636;DHT22;7917;50.818;6.972;2023-02-01T02:21:35;5.40;99.90
15636;DHT22;7917;50.818;6.972;2023-02-01T02:24:18;5.40;99.90
15636;DHT22;7917;50.818;6.972;2023-02-01T02:33:41;5.50;99.90
15636;DHT22;7917;50.818;6.972;2023-02-01T02:36:37;5.60;99.90
15636;DHT22;7917;50.818;6.972;2023-02-01T02:39:41;5.60;99.90
15636;DHT22;7917;50.818;6.972;2023-02-01T02:42:40;5.50;99.90
15636;DHT22;7917;50.818;6.972;2023-02-01T02:45:49;5.50;99.90
15636;DHT22;7917;50.818;6.972;2023-02-01T02:48:47;5.60;99.90
15636;DHT22;7917;50.818;6.972;2023-02-01T02:51:27;5.60;99.90
15636;DHT22;7917;50.818;6.972;2023-02-01T02:54:15;5.70;99.90
15636;DHT22;7917;50.818;6.972;2023-02-01T03:00:27;5.80;99.90
15636;DHT22;7917;50.818;6.972;2023-02-01T03:03:13;5.80;99.90
15636;DHT22;7917;50.818;6.972;2023-02-01T03:06:00;5.90;99.90
15636;DHT22;7917;50.818;6.972;2023-02-01T03:08:51;5.80;99.90
15636;DHT22;7917;50.818;6.972;2023-02-01T03:14:53;5.80;99.90
15636;DHT22;7917;50.818;6.972;2023-02-01T03:17:34;5.90;99.90
15636;DHT22;7917;50.818;6.972;2023-02-01T03:20:06;5.80;99.90
15636;DHT22;7917;50.818;6.972;2023-02-01T03:22:38;5.70;99.90
15636;DHT22;7917;50.818;6.972;2023-02-01T03:28:50;5.80;99.90
15636;DHT22;7917;50.818;6.972;2023-02-01T03:34:20;5.80;99.90
15636;DHT22;7917;50.818;6.972;2023-02-01T03:36:53;5.80;99.90
15636;DHT22;7917;50.818;6.972;2023-02-01T03:46:24;5.90;99.90
15636;DHT22;7917;50.818;6.972;2023-02-01T03:48:55;6.00;99.90
15636;DHT22;7917;50.818;6.972;2023-02-01T03:51:40;6.00;99.90
15636;DHT22;7917;50.818;6.972;2023-02-01T03:54:25;6.00;99.90
15636;DHT22;7917;50.818;6.972;2023-02-01T03:56:57;6.00;99.90
15636;DHT22;7917;50.818;6.972;2023-02-01T04:02:23;6.00;99.90
15636;DHT22;7917;50.818;6.972;2023-02-01T04:05:16;5.90;99.90
15636;DHT22;7917;50.818;6.972;2023-02-01T04:08:05;5.80;99.90
15636;DHT22;7917;50.818;6.972;2023-02-01T04:11:07;5.60;99.90
15636;DHT22;7917;50.818;6.972;2023-02-01T04:13:49;5.70;99.90
15636;DHT22;7917;50.818;6.972;2023-02-01T04:19:37;5.70;99.90
15636;DHT22;7917;50.818;6.972;2023-02-01T04:25:25;5.80;99.90
15636;DHT22;7917;50.818;6.972;2023-02-01T04:28:29;5.80;99.90
15636;DHT22;7917;50.818;6.972;2023-02-01T04:31:21;5.60;99.90
15636;DHT22;7917;50.818;6.972;2023-02-01T04:37:30;5.80;99.90
15636;DHT22;7917;50.818;6.972;2023-02-01T04:40:15;5.80;99.90
15636;DHT22;7917;50.818;6.972;2023-02-01T04:42:56;5.80;99.90
15636;DHT22;7917;50.818;6.972;2023-02-01T04:45:23;5.70;99.90
15636;DHT22;7917;50.818;6.972;2023-02-01T04:47:49;5.70;99.90
15636;DHT22;7917;50.818;6.972;2023-02-01T04:50:37;5.60;99.90
15636;DHT22;7917;50.818;6.972;2023-02-01T04:53:12;5.60;99.90
15636;DHT22;7917;50.818;6.972;2023-02-01T04:55:39;5.50;99.90
15636;DHT22;7917;50.818;6.972;2023-02-01T04:58:12;5.50;99.90
15636;DHT22;7917;50.818;6.972;2023-02-01T05:00:39;5.40;99.90
15636;DHT22;7917;50.818;6.972;2023-02-01T05:03:06;5.40;99.90
15636;DHT22;7917;50.818;6.972;2023-02-01T05:08:41;5.30;99.90
15636;DHT22;7917;50.818;6.972;2023-02-01T05:11:37;5.40;99.90
15636;DHT22;7917;50.818;6.972;2023-02-01T05:14:22;5.50;99.90
15636;DHT22;7917;50.818;6.972;2023-02-01T05:19:37;5.40;99.90
15636;DHT22;7917;50.818;6.972;2023-02-01T05:22:03;5.40;99.90
15636;DHT22;7917;50.818;6.972;2023-02-01T05:24:54;5.40;99.90
15636;DHT22;7917;50.818;6.972;2023-02-01T05:27:35;5.40;99.90
15636;DHT22;7917;50.818;6.972;2023-02-01T05:30:29;5.40;99.90
15636;DHT22;7917;50.818;6.972;2023-02-01T05:33:10;5.20;99.90
15636;DHT22;7917;50.818;6.972;2023-02-01T05:36:11;5.10;99.90
15636;DHT22;7917;50.818;6.972;2023-02-01T05:38:52;5.20;99.90
15636;DHT22;7917;50.818;6.972;2023-02-01T05:41:43;5.10;99.90
15636;DHT22;7917;50.818;6.972;2023-02-01T05:44:27;5.00;99.90
15636;DHT22;7917;50.818;6.972;2023-02-01T05:49:58;5.00;99.90
15636;DHT22;7917;50.818;6.972;2023-02-01T05:52:39;5.00;99.90
15636;DHT22;7917;50.818;6.972;2023-02-01T06:04:53;5.20;99.90
15636;DHT22;7917;50.818;6.972;2023-02-01T06:14:18;5.20;99.90
15636;DHT22;7917;50.818;6.972;2023-02-01T06:17:00;5.30;99.90
15636;DHT22;7917;50.818;6.972;2023-02-01T06:19:27;5.30;99.90
15636;DHT22;7917;50.818;6.972;2023-02-01T06:22:25;5.30;99.90
15636;DHT22;7917;50.818;6.972;2023-02-01T06:25:10;5.20;99.90
15636;DHT22;7917;50.818;6.972;2023-02-01T06:27:40;5.20;99.90
15636;DHT22;7917;50.818;6.972;2023-02-01T06:30:08;5.20;99.90
15636;DHT22;7917;50.818;6.972;2023-02-01T06:32:51;5.20;99.90
15636;DHT22;7917;50.818;6.972;2023-02-01T06:38:48;5.30;99.90
15636;DHT22;7917;50.818;6.972;2023-02-01T06:45:17;5.20;99.90
15636;DHT22;7917;50.818;6.972;2023-02-01T06:48:14;5.10;99.90
15636;DHT22;7917;50.818;6.972;2023-02-01T06:54:25;5.10;99.90
15636;DHT22;7917;50.818;6.972;2023-02-01T06:56:59;5.30;99.90
15636;DHT22;7917;50.818;6.972;2023-02-01T07:06:56;5.40;99.90
15636;DHT22;7917;50.818;6.972;2023-02-01T07:09:22;5.40;99.90
15636;DHT22;7917;50.818;6.972;2023-02-01T07:11:49;5.30;99.90
15636;DHT22;7917;50.818;6.972;2023-02-01T07:14:50;5.30;99.90
15636;DHT22;7917;50.818;6.972;2023-02-01T07:18:04;5.20;99.90
15636;DHT22;7917;50.818;6.972;2023-02-01T07:21:09;5.10;99.90
15636;DHT22;7917;50.818;6.972;2023-02-01T07:26:59;5.20;99.90
15636;DHT22;7917;50.818;6.972;2023-02-01T07:29:45;5.30;99.90
15636;DHT22;7917;50.818;6.972;2023-02-01T07:32:13;5.30;99.90
15636;DHT22;7917;50.818;6.972;2023-02-01T07:38:16;5.30;99.90
15636;DHT22;7917;50.818;6.972;2023-02-01T07:41:11;5.30;99.90
15636;DHT22;7917;50.818;6.972;2023-02-01T07:43:53;5.30;99.90
15636;DHT22;7917;50.818;6.972;2023-02-01T07:46:43;5.40;99.90
15636;DHT22;7917;50.818;6.972;2023-02-01T07:52:28;5.60;99.90
15636;DHT22;7917;50.818;6.972;2023-02-01T07:54:55;5.60;99.90
15636;DHT22;7917;50.818;6.972;2023-02-01T07:57:22;5.50;99.90
15636;DHT22;7917;50.818;6.972;2023-02-01T07:59:49;5.50;99.90
15636;DHT22;7917;50.818;6.972;2023-02-01T08:02:34;5.50;99.90
15636;DHT22;7917;50.818;6.972;2023-02-01T08:05:01;5.60;99.90
15636;DHT22;7917;50.818;6.972;2023-02-01T08:07:31;5.60;99.90
15636;DHT22;7917;50.818;6.972;2023-02-01T08:09:58;5.70;99.90
15636;DHT22;7917;50.818;6.972;2023-02-01T08:12:25;5.70;99.90
15636;DHT22;7917;50.818;6.972;2023-02-01T08:14:53;5.70;99.90
15636;DHT22;7917;50.818;6.972;2023-02-01T08:17:22;5.70;99.90
15636;DHT22;7917;50.818;6.972;2023-02-01T08:19:48;5.70;99.90
15636;DHT22;7917;50.818;6.972;2023-02-01T08:22:15;5.80;99.90
15636;DHT22;7917;50.818;6.972;2023-02-01T08:24:42;5.80;99.90
15636;DHT22;7917;50.818;6.972;2023-02-01T08:27:09;5.80;99.90
15636;DHT22;7917;50.818;6.972;2023-02-01T08:29:35;5.80;99.90
15636;DHT22;7917;50.818;6.972;2023-02-01T08:32:03;5.90;99.90
15636;DHT22;7917;50.818;6.972;2023-02-01T08:34:30;5.90;99.90
15636;DHT22;7917;50.818;6.972;2023-02-01T08:36:57;6.00;99.90
15636;DHT22;7917;50.818;6.972;2023-02-01T08:39:24;6.00;99.90
15636;DHT22;7917;50.818;6.972;2023-02-01T08:41:51;6.10;99.90
15636;DHT22;7917;50.818;6.972;2023-02-01T08:44:32;6.10;99.90
15636;DHT22;7917;50.818;6.972;2023-02-01T08:46:59;6.20;99.90
15636;DHT22;7917;50.818;6.972;2023-02-01T08:49:26;6.20;99.90
15636;DHT22;7917;50.818;6.972;2023-02-01T08:51:53;6.20;99.90
15636;DHT22;7917;50.818;6.972;2023-02-01T08:54:21;6.30;99.90
15636;DHT22;7917;50.818;6.972;2023-02-01T08:56:47;6.30;99.90
15636;DHT22;7917;50.818;6.972;2023-02-01T08:59:14;6.30;99.90
15636;DHT22;7917;50.818;6.972;2023-02-01T09:01:41;6.30;99.90
15636;DHT22;7917;50.818;6.972;2023-02-01T09:04:08;6.40;99.90
15636;DHT22;7917;50.818;6.972;2023-02-01T09:06:35;6.40;99.90
15636;DHT22;7917;50.818;6.972;2023-02-01T09:09:02;6.60;99.90
15636;DHT22;7917;50.818;6.972;2023-02-01T09:11:31;6.60;99.90
15636;DHT22;7917;50.818;6.972;2023-02-01T09:13:58;6.70;99.90
15636;DHT22;7917;50.818;6.972;2023-02-01T09:16:25;6.70;99.90
15636;DHT22;7917;50.818;6.972;2023-02-01T09:18:51;6.70;99.90
15636;DHT22;7917;50.818;6.972;2023-02-01T09:21:24;6.80;99.90
15636;DHT22;7917;50.818;6.972;2023-02-01T09:23:59;6.80;99.90
15636;DHT22;7917;50.818;6.972;2023-02-01T09:26:36;6.90;99.90
15636;DHT22;7917;50.818;6.972;2023-02-01T09:31:49;6.90;99.90
15636;DHT22;7917;50.818;6.972;2023-02-01T09:34:21;6.90;99.90
15636;DHT22;7917;50.818;6.972;2023-02-01T09:36:53;6.80;99.90
15636;DHT22;7917;50.818;6.972;2023-02-01T09:39:39;6.60;99.90
15636;DHT22;7917;50.818;6.972;2023-02-01T09:45:59;6.80;99.90
15636;DHT22;7917;50.818;6.972;2023-02-01T09:48:42;6.90;1.00
15636;DHT22;7917;50.818;6.972;2023-02-01T09:51:36;7.00;1.00
15636;DHT22;7917;50.818;6.972;2023-02-01T09:57:24;7.10;99.90
15636;DHT22;7917;50.818;6.972;2023-02-01T10:00:18;7.20;99.90
15636;DHT22;7917;50.818;6.972;2023-02-01T10:03:11;7.20;99.90
15636;DHT22;7917;50.818;6.972;2023-02-01T10:08:51;7.20;90.80
15636;DHT22;7917;50.818;6.972;2023-02-01T10:14:55;7.10;1.00
15636;DHT22;7917;50.818;6.972;2023-02-01T10:24:19;7.00;1.00
15636;DHT22;7917;50.818;6.972;2023-02-01T10:33:16;7.10;99.90
15636;DHT22;7917;50.818;6.972;2023-02-01T10:35:46;7.10;1.00
15636;DHT22;7917;50.818;6.972;2023-02-01T10:38:26;7.30;1.00
15636;DHT22;7917;50.818;6.972;2023-02-01T10:47:19;7.60;1.00
15636;DHT22;7917;50.818;6.972;2023-02-01T10:56:54;7.90;1.00
15636;DHT22;7917;50.818;6.972;2023-02-01T10:59:24;7.80;99.90
15636;DHT22;7917;50.818;6.972;2023-02-01T11:02:23;7.80;1.00
15636;DHT22;7917;50.818;6.972;2023-02-01T11:05:08;8.00;99.90
15636;DHT22;7917;50.818;6.972;2023-02-01T11:07:36;8.00;1.00
15636;DHT22;7917;50.818;6.972;2023-02-01T11:10:05;8.10;1.00
15636;DHT22;7917;50.818;6.972;2023-02-01T11:12:34;8.20;1.00
15636;DHT22;7917;50.818;6.972;2023-02-01T11:15:19;8.20;1.00
15636;DHT22;7917;50.818;6.972;2023-02-01T11:17:51;8.20;1.00
15636;DHT22;7917;50.818;6.972;2023-02-01T11:23:03;8.00;1.00
15636;DHT22;7917;50.818;6.972;2023-02-01T11:29:34;8.00;96.40
15636;DHT22;7917;50.818;6.972;2023-02-01T11:35:21;8.10;99.90
15636;DHT22;7917;50.818;6.972;2023-02-01T11:38:11;8.00;99.90
15636;DHT22;7917;50.818;6.972;2023-02-01T11:41:14;8.20;1.00
15636;DHT22;7917;50.818;6.972;2023-02-01T11:43:55;8.10;1.00
15636;DHT22;7917;50.818;6.972;2023-02-01T11:46:28;8.10;1.00
15636;DHT22;7917;50.818;6.972;2023-02-01T11:49:19;8.30;99.90
15636;DHT22;7917;50.818;6.972;2023-02-01T11:52:36;8.40;1.00
15636;DHT22;7917;50.818;6.972;2023-02-01T11:55:31;8.40;1.00
15636;DHT22;7917;50.818;6.972;2023-02-01T11:58:14;8.20;99.90
15636;DHT22;7917;50.818;6.972;2023-02-01T12:13:51;7.90;67.40
15636;DHT22;7917;50.818;6.972;2023-02-01T12:16:31;8.00;5.80
15636;DHT22;7917;50.818;6.972;2023-02-01T12:19:35;8.00;1.00
15636;DHT22;7917;50.818;6.972;2023-02-01T12:22:53;8.00;99.90
15636;DHT22;7917;50.818;6.972;2023-02-01T12:29:35;8.30;1.00
15636;DHT22;7917;50.818;6.972;2023-02-01T12:36:03;8.30;1.00
15636;DHT22;7917;50.818;6.972;2023-02-01T12:47:47;8.30;99.90
15636;DHT22;7917;50.818;6.972;2023-02-01T12:50:28;8.30;99.90
15636;DHT22;7917;50.818;6.972;2023-02-01T12:53:06;8.30;99.90
15636;DHT22;7917;50.818;6.972;2023-02-01T12:55:36;8.30;99.90
15636;DHT22;7917;50.818;6.972;2023-02-01T12:58:36;8.50;99.90
15636;DHT22;7917;50.818;6.972;2023-02-01T13:04:13;8.50;99.90
15636;DHT22;7917;50.818;6.972;2023-02-01T13:06:45;8.50;99.90
15636;DHT22;7917;50.818;6.972;2023-02-01T13:09:37;8.30;99.90
15636;DHT22;7917;50.818;6.972;2023-02-01T13:12:13;8.20;99.90
15636;DHT22;7917;50.818;6.972;2023-02-01T13:15:27;8.10;99.90
15636;DHT22;7917;50.818;6.972;2023-02-01T13:22:09;7.90;99.90
15636;DHT22;7917;50.818;6.972;2023-02-01T13:24:56;7.90;99.90
15636;DHT22;7917;50.818;6.972;2023-02-01T13:28:07;7.80;99.90
15636;DHT22;7917;50.818;6.972;2023-02-01T13:47:09;7.60;99.90
15636;DHT22;7917;50.818;6.972;2023-02-01T13:47:34;7.50;99.90
15636;DHT22;7917;50.818;6.972;2023-02-01T13:50:16;7.60;99.90
15636;DHT22;7917;50.818;6.972;2023-02-01T13:52:52;7.50;99.90
15636;DHT22;7917;50.818;6.972;2023-02-01T13:58:34;7.50;99.90
15636;DHT22;7917;50.818;6.972;2023-02-01T14:10:47;7.70;99.90
15636;DHT22;7917;50.818;6.972;2023-02-01T14:13:43;7.70;1.00
15636;DHT22;7917;50.818;6.972;2023-02-01T14:16:13;7.70;99.90
15636;DHT22;7917;50.818;6.972;2023-02-01T14:18:59;7.80;99.90
15636;DHT22;7917;50.818;6.972;2023-02-01T14:25:15;7.80;99.90
15636;DHT22;7917;50.818;6.972;2023-02-01T14:27:45;7.90;99.90
15636;DHT22;7917;50.818;6.972;2023-02-01T14:30:25;7.80;99.90
15636;DHT22;7917;50.818;6.972;2023-02-01T14:36:20;7.90;99.90
15636;DHT22;7917;50.818;6.972;2023-02-01T14:41:56;8.00;99.90
15636;DHT22;7917;50.818;6.972;2023-02-01T14:54:57;8.00;99.90
15636;DHT22;7917;50.818;6.972;2023-02-01T15:04:57;8.00;99.90
15636;DHT22;7917;50.818;6.972;2023-02-01T15:07:46;8.00;99.90
15636;DHT22;7917;50.818;6.972;2023-02-01T15:10:22;8.10;99.90
15636;DHT22;7917;50.818;6.972;2023-02-01T15:16:15;8.10;99.90
15636;DHT22;7917;50.818;6.972;2023-02-01T15:19:09;8.10;99.90
15636;DHT22;7917;50.818;6.972;2023-02-01T15:22:17;8.10;99.90
15636;DHT22;7917;50.818;6.972;2023-02-01T15:24:52;8.10;99.90
15636;DHT22;7917;50.818;6.972;2023-02-01T15:30:28;8.10;99.90
15636;DHT22;7917;50.818;6.972;2023-02-01T15:33:06;8.10;99.90
15636;DHT22;7917;50.818;6.972;2023-02-01T15:35:39;8.10;99.90
15636;DHT22;7917;50.818;6.972;2023-02-01T15:51:24;8.10;99.90
15636;DHT22;7917;50.818;6.972;2023-02-01T15:54:17;8.10;99.90
15636;DHT22;7917;50.818;6.972;2023-02-01T15:57:11;8.10;99.90
15636;DHT22;7917;50.818;6.972;2023-02-01T15:59:47;8.10;99.90
15636;DHT22;7917;50.818;6.972;2023-02-01T16:05:32;7.90;99.90
15636;DHT22;7917;50.818;6.972;2023-02-01T16:08:03;7.80;99.90
15636;DHT22;7917;50.818;6.972;2023-02-01T16:10:42;7.70;99.90
15636;DHT22;7917;50.818;6.972;2023-02-01T16:13:30;7.60;99.90
15636;DHT22;7917;50.818;6.972;2023-02-01T16:16:33;7.40;99.90
15636;DHT22;7917;50.818;6.972;2023-02-01T16:19:10;7.40;99.90
15636;DHT22;7917;50.818;6.972;2023-02-01T16:24:55;7.20;99.90
15636;DHT22;7917;50.818;6.972;2023-02-01T16:27:42;7.10;99.90
15636;DHT22;7917;50.818;6.972;2023-02-01T16:30:10;7.10;99.90
15636;DHT22;7917;50.818;6.972;2023-02-01T16:33:19;7.10;99.90
15636;DHT22;7917;50.818;6.972;2023-02-01T16:35:51;6.90;99.90
15636;DHT22;7917;50.818;6.972;2023-02-01T16:38:27;6.80;99.90
15636;DHT22;7917;50.818;6.972;2023-02-01T16:40:54;6.80;99.90
15636;DHT22;7917;50.818;6.972;2023-02-01T16:43:24;6.70;99.90
15636;DHT22;7917;50.818;6.972;2023-02-01T16:45:54;6.70;99.90
15636;DHT22;7917;50.818;6.972;2023-02-01T16:48:31;6.60;99.90
15636;DHT22;7917;50.818;6.972;2023-02-01T16:51:51;6.60;99.90
15636;DHT22;7917;50.818;6.972;2023-02-01T16:54:58;6.50;99.90
15636;DHT22;7917;50.818;6.972;2023-02-01T17:00:36;6.50;99.90
15636;DHT22;7917;50.818;6.972;2023-02-01T17:03:09;6.40;99.90
15636;DHT22;7917;50.818;6.972;2023-02-01T17:05:47;6.40;99.90
15636;DHT22;7917;50.818;6.972;2023-02-01T17:18:38;6.40;99.90
15636;DHT22;7917;50.818;6.972;2023-02-01T17:21:23;6.40;99.90
15636;DHT22;7917;50.818;6.972;2023-02-01T17:23:53;6.40;99.90
15636;DHT22;7917;50.818;6.972;2023-02-01T17:26:26;6.40;99.90
15636;DHT22;7917;50.818;6.972;2023-02-01T17:35:55;6.40;99.90
15636;DHT22;7917;50.818;6.972;2023-02-01T17:38:26;6.40;99.90
15636;DHT22;7917;50.818;6.972;2023-02-01T17:41:15;6.40;99.90
15636;DHT22;7917;50.818;6.972;2023-02-01T17:43:56;6.40;99.90
15636;DHT22;7917;50.818;6.972;2023-02-01T17:46:23;6.40;99.90
15636;DHT22;7917;50.818;6.972;2023-02-01T17:48:56;6.40;99.90
15636;DHT22;7917;50.818;6.972;2023-02-01T17:51:31;6.40;99.90
15636;DHT22;7917;50.818;6.972;2023-02-01T17:54:22;6.40;99.90
15636;DHT22;7917;50.818;6.972;2023-02-01T17:56:53;6.40;99.90
15636;DHT22;7917;50.818;6.972;2023-02-01T18:02:29;6.50;99.90
15636;DHT22;7917;50.818;6.972;2023-02-01T18:05:15;6.40;99.90
15636;DHT22;7917;50.818;6.972;2023-02-01T18:08:07;6.60;1.00
15636;DHT22;7917;50.818;6.972;2023-02-01T18:10:54;6.60;1.00
15636;DHT22;7917;50.818;6.972;2023-02-01T18:13:50;6.60;1.00
15636;DHT22;7917;50.818;6.972;2023-02-01T18:16:35;6.50;12.60
15636;DHT22;7917;50.818;6.972;2023-02-01T18:19:12;6.60;1.00
15636;DHT22;7917;50.818;6.972;2023-02-01T18:22:12;6.70;1.00
15636;DHT22;7917;50.818;6.972;2023-02-01T18:24:42;6.60;1.00
15636;DHT22;7917;50.818;6.972;2023-02-01T18:30:16;6.70;1.00
15636;DHT22;7917;50.818;6.972;2023-02-01T18:32:47;6.80;99.90
15636;DHT22;7917;50.818;6.972;2023-02-01T18:35:27;6.80;99.90
15636;DHT22;7917;50.818;6.972;2023-02-01T18:38:18;6.80;99.90
15636;DHT22;7917;50.818;6.972;2023-02-01T18:40:48;6.80;99.90
15636;DHT22;7917;50.818;6.972;2023-02-01T18:43:21;6.80;99.90
15636;DHT22;7917;50.818;6.972;2023-02-01T18:48:46;6.80;99.90
15636;DHT22;7917;50.818;6.972;2023-02-01T18:51:34;6.80;99.90
15636;DHT22;7917;50.818;6.972;2023-02-01T18:54:25;6.80;99.90
15636;DHT22;7917;50.818;6.972;2023-02-01T18:56:54;6.80;1.40
15636;DHT22;7917;50.818;6.972;2023-02-01T18:59:33;6.90;1.00
15636;DHT22;7917;50.818;6.972;2023-02-01T19:02:27;6.90;1.00
15636;DHT22;7917;50.818;6.972;2023-02-01T19:04:56;6.90;1.00
15636;DHT22;7917;50.818;6.972;2023-02-01T19:07:23;6.90;1.00
15636;DHT22;7917;50.818;6.972;2023-02-01T19:12:49;6.90;1.00
15636;DHT22;7917;50.818;6.972;2023-02-01T19:15:34;6.90;1.00
15636;DHT22;7917;50.818;6.972;2023-02-01T19:18:25;6.90;1.00
15636;DHT22;7917;50.818;6.972;2023-02-01T19:24:28;7.00;99.90
15636;DHT22;7917;50.818;6.972;2023-02-01T19:26:55;7.10;99.90
15636;DHT22;7917;50.818;6.972;2023-02-01T19:29:23;7.00;99.90
15636;DHT22;7917;50.818;6.972;2023-02-01T19:32:08;7.10;1.00
15636;DHT22;7917;50.818;6.972;2023-02-01T19:34:40;7.10;1.00
15636;DHT22;7917;50.818;6.972;2023-02-01T19:37:07;7.10;1.00
15636;DHT22;7917;50.818;6.972;2023-02-01T19:39:35;7.10;45.20
15636;DHT22;7917;50.818;6.972;2023-02-01T19:42:44;7.10;90.00
15636;DHT22;7917;50.818;6.972;2023-02-01T19:45:18;7.10;1.00
15636;DHT22;7917;50.818;6.972;2023-02-01T19:48:08;7.20;99.90
15636;DHT22;7917;50.818;6.972;2023-02-01T19:50:50;7.10;99.90
15636;DHT22;7917;50.818;6.972;2023-02-01T19:53:17;7.20;99.90
15636;DHT22;7917;50.818;6.972;2023-02-01T19:56:26;7.20;99.90
15636;DHT22;7917;50.818;6.972;2023-02-01T19:59:29;7.10;99.90
15636;DHT22;7917;50.818;6.972;2023-02-01T20:05:03;7.20;98.10
15636;DHT22;7917;50.818;6.972;2023-02-01T20:07:30;7.20;99.90
15636;DHT22;7917;50.818;6.972;2023-02-01T20:10:07;7.20;99.90
15636;DHT22;7917;50.818;6.972;2023-02-01T20:12:55;7.20;1.00
15636;DHT22;7917;50.818;6.972;2023-02-01T20:15:22;7.30;23.40
15636;DHT22;7917;50.818;6.972;2023-02-01T20:17:52;7.30;1.00
15636;DHT22;7917;50.818;6.972;2023-02-01T20:20:59;7.30;99.90
15636;DHT22;7917;50.818;6.972;2023-02-01T20:23:27;7.30;1.00
15636;DHT22;7917;50.818;6.972;2023-02-01T20:26:00;7.20;1.00
15636;DHT22;7917;50.818;6.972;2023-02-01T20:31:22;7.20;1.00
15636;DHT22;7917;50.818;6.972;2023-02-01T20:33:50;7.20;32.20
15636;DHT22;7917;50.818;6.972;2023-02-01T20:36:18;7.40;56.80
15636;DHT22;7917;50.818;6.972;2023-02-01T20:38:54;7.40;99.90
15636;DHT22;7917;50.818;6.972;2023-02-01T20:41:34;7.40;99.90
15636;DHT22;7917;50.818;6.972;2023-02-01T20:44:13;7.30;1.00
15636;DHT22;7917;50.818;6.972;2023-02-01T20:46:46;7.30;1.00
15636;DHT22;7917;50.818;6.972;2023-02-01T20:49:15;7.30;82.30
15636;DHT22;7917;50.818;6.972;2023-02-01T20:51:43;7.40;99.90
15636;DHT22;7917;50.818;6.972;2023-02-01T20:54:10;7.40;99.90
15636;DHT22;7917;50.818;6.972;2023-02-01T20:56:37;7.40;99.90
15636;DHT22;7917;50.818;6.972;2023-02-01T20:59:16;7.40;1.00
15636;DHT22;7917;50.818;6.972;2023-02-01T21:01:43;7.50;99.90
15636;DHT22;7917;50.818;6.972;2023-02-01T21:04:21;7.50;99.90
15636;DHT22;7917;50.818;6.972;2023-02-01T21:06:58;7.40;1.00
15636;DHT22;7917;50.818;6.972;2023-02-01T21:09:34;7.40;1.00
15636;DHT22;7917;50.818;6.972;2023-02-01T21:12:01;7.40;1.00
15636;DHT22;7917;50.818;6.972;2023-02-01T21:14:28;7.50;99.90
15636;DHT22;7917;50.818;6.972;2023-02-01T21:16:58;7.60;1.00
15636;DHT22;7917;50.818;6.972;2023-02-01T21:19:25;7.60;99.90
15636;DHT22;7917;50.818;6.972;2023-02-01T21:21:52;7.40;1.00
15636;DHT22;7917;50.818;6.972;2023-02-01T21:24:19;7.40;99.90
15636;DHT22;7917;50.818;6.972;2023-02-01T21:26:49;7.40;1.00
15636;DHT22;7917;50.818;6.972;2023-02-01T21:29:28;7.50;1.00
15636;DHT22;7917;50.818;6.972;2023-02-01T21:31:54;7.50;1.00
15636;DHT22;7917;50.818;6.972;2023-02-01T21:34:30;7.40;1.00
15636;DHT22;7917;50.818;6.972;2023-02-01T21:36:58;7.40;52.10
15636;DHT22;7917;50.818;6.972;2023-02-01T21:39:34;7.50;1.00
15636;DHT22;7917;50.818;6.972;2023-02-01T21:42:00;7.50;1.00
15636;DHT22;7917;50.818;6.972;2023-02-01T21:44:39;7.50;1.00
15636;DHT22;7917;50.818;6.972;2023-02-01T21:47:07;7.60;1.00
15636;DHT22;7917;50.818;6.972;2023-02-01T21:49:37;7.50;99.90
15636;DHT22;7917;50.818;6.972;2023-02-01T21:52:04;7.60;1.00
15636;DHT22;7917;50.818;6.972;2023-02-01T21:54:32;7.60;33.40
15636;DHT22;7917;50.818;6.972;2023-02-01T21:57:16;7.60;12.60
15636;DHT22;7917;50.818;6.972;2023-02-01T21:59:46;7.60;1.00
15636;DHT22;7917;50.818;6.972;2023-02-01T22:02:14;7.70;1.00
15636;DHT22;7917;50.818;6.972;2023-02-01T22:04:41;7.60;1.00
15636;DHT22;7917;50.818;6.972;2023-02-01T22:07:09;7.60;1.00
15636;DHT22;7917;50.818;6.972;2023-02-01T22:09:36;7.60;99.90
15636;DHT22;7917;50.818;6.972;2023-02-01T22:12:03;7.60;99.90
15636;DHT22;7917;50.818;6.972;2023-02-01T22:17:52;7.70;1.00
15636;DHT22;7917;50.818;6.972;2023-02-01T22:20:34;7.60;13.40
15636;DHT22;7917;50.818;6.972;2023-02-01T22:23:02;7.60;26.90
15636;DHT22;7917;50.818;6.972;2023-02-01T22:25:29;7.60;1.00
15636;DHT22;7917;50.818;6.972;2023-02-01T22:27:56;7.70;1.00
15636;DHT22;7917;50.818;6.972;2023-02-01T22:30:23;7.70;1.00
15636;DHT22;7917;50.818;6.972;2023-02-01T22:32:50;7.60;99.90
15636;DHT22;7917;50.818;6.972;2023-02-01T22:35:17;7.60;99.90
15636;DHT22;7917;50.818;6.972;2023-02-01T22:37:50;7.60;99.90
15636;DHT22;7917;50.818;6.972;2023-02-01T22:40:18;7.60;99.90
15636;DHT22;7917;50.818;6.972;2023-02-01T22:42:46;7.50;99.90
15636;DHT22;7917;50.818;6.972;2023-02-01T22:45:14;7.60;99.90
15636;DHT22;7917;50.818;6.972;2023-02-01T22:47:57;7.60;99.90